Time;durP1;ratioP1;P1;durP2;ratioP2;P2;SDS_P1;SDS_P2;PMS_P1;PMS_P2;Temp;Humidity;BMP_temperature;BMP_pressure;BME280_temperature;BME280_humidity;BME280_pressure;Samples;Min_cycle;Max_cycle;Signal;HPM_P1;HPM_P2
2020/12/28 00:00:59;;;;;;;1.67;1.00;;;;;;;3.61;nan;93186.44;4991611;28;20250;-94
2020/12/28 00:03:26;;;;;;;3.83;1.38;;;;;;;3.95;nan;93251.88;4991493;28;20281;-93
2020/12/28 00:05:53;;;;;;;1.55;1.20;;;;;;;3.86;nan;93232.16;4990757;28;20725;-94
2020/12/28 00:08:19;;;;;;;1.40;1.02;;;;;;;3.57;nan;93174.81;4986193;28;20591;-93
2020/12/28 00:10:47;;;;;;;1.63;1.05;;;;;;;4.00;nan;93229.13;4989408;28;20617;-92
2020/12/28 00:13:14;;;;;;;1.45;1.00;;;;;;;3.72;nan;93191.44;4987414;28;20229;-93
2020/12/28 00:15:41;;;;;;;2.22;1.02;;;;;;;3.84;nan;93202.38;4988094;28;20611;-92
2020/12/28 00:18:08;;;;;;;1.65;1.00;;;;;;;3.97;nan;93235.38;4986576;28;20216;-93
2020/12/28 00:20:35;;;;;;;1.45;0.95;;;;;;;3.64;nan;93163.03;4985339;28;20245;-93
2020/12/28 00:23:02;;;;;;;2.08;1.20;;;;;;;3.96;nan;93202.06;4987474;28;20263;-95
2020/12/28 00:25:29;;;;;;;1.60;0.90;;;;;;;4.06;nan;93210.56;4986440;28;20236;-94
2020/12/28 00:27:57;;;;;;;0.98;0.88;;;;;;;3.96;nan;93180.69;4988274;28;20630;-95
2020/12/28 00:30:24;;;;;;;1.35;0.82;;;;;;;4.08;nan;93208.66;4985553;28;20225;-92
2020/12/28 00:32:51;;;;;;;1.10;0.80;;;;;;;3.93;nan;93187.72;4990074;28;20727;-94
2020/12/28 00:35:18;;;;;;;1.20;0.80;;;;;;;3.81;nan;93172.59;4990506;28;20253;-95
2020/12/28 00:37:47;;;;;;;6.03;1.30;;;;;;;3.73;nan;93153.66;4991207;28;20305;-94
2020/12/28 00:40:15;;;;;;;1.75;1.13;;;;;;;3.41;nan;93110.31;4992084;28;20249;-95
2020/12/28 00:42:42;;;;;;;1.20;1.10;;;;;;;3.97;nan;93203.69;4991675;28;20216;-95
2020/12/28 00:45:10;;;;;;;1.65;0.90;;;;;;;3.77;nan;93178.16;4989466;28;20292;-95
2020/12/28 00:47:37;;;;;;;2.60;1.33;;;;;;;3.84;nan;93202.38;4988763;28;20682;-96
2020/12/28 00:50:06;;;;;;;1.55;0.98;;;;;;;3.96;nan;93217.50;4989159;28;20255;-95
2020/12/28 00:52:33;;;;;;;1.20;0.98;;;;;;;3.64;nan;93175.06;4990758;28;20706;-94
2020/12/28 00:55:00;;;;;;;1.75;1.15;;;;;;;3.95;nan;93217.66;4990202;28;20321;-95
2020/12/28 00:57:27;;;;;;;2.30;1.40;;;;;;;3.46;nan;93146.69;4994283;28;20233;-95
2020/12/28 00:59:54;;;;;;;1.30;1.15;;;;;;;3.85;nan;93209.13;4987541;28;20640;-95
2020/12/28 01:02:22;;;;;;;4.82;1.55;;;;;;;3.67;nan;93173.03;4988011;28;20663;-95
2020/12/28 01:04:49;;;;;;;1.85;1.23;;;;;;;3.76;nan;93185.03;4987692;28;20249;-94
2020/12/28 01:07:16;;;;;;;1.55;1.23;;;;;;;3.49;nan;93136.13;4987901;28;20283;-92
2020/12/28 01:09:43;;;;;;;2.13;1.20;;;;;;;3.70;nan;93171.94;4986894;28;20683;-93
2020/12/28 01:12:10;;;;;;;1.30;0.90;;;;;;;3.60;nan;93158.31;4988564;28;20197;-94
2020/12/28 01:14:37;;;;;;;1.90;1.20;;;;;;;3.34;nan;93122.09;4987187;28;20763;-94
2020/12/28 01:17:04;;;;;;;3.63;1.55;;;;;;;3.45;nan;93145.06;4989465;28;20658;-95
2020/12/28 01:19:33;;;;;;;1.50;1.35;;;;;;;3.44;nan;93152.94;4977369;28;20624;-94
2020/12/28 01:21:59;;;;;;;1.48;1.20;;;;;;;3.50;nan;93167.78;4989147;28;20888;-94
2020/12/28 01:24:26;;;;;;;2.28;1.23;;;;;;;3.34;nan;93152.13;4985090;28;20568;-95
2020/12/28 01:26:54;;;;;;;1.85;1.20;;;;;;;3.54;nan;93174.28;4968631;28;20571;-94
2020/12/28 01:33:09;;;;;;;1.67;1.35;;;;;;;3.52;nan;93182.13;4987576;28;20169;-94
2020/12/28 01:35:38;;;;;;;1.35;1.20;;;;;;;3.72;nan;93208.59;4987633;28;20231;-95
2020/12/28 01:38:05;;;;;;;1.35;1.17;;;;;;;3.39;nan;93161.03;4989909;28;20592;-96
2020/12/28 01:40:32;;;;;;;2.40;1.75;;;;;;;3.42;nan;93171.06;4988789;28;20283;-95
2020/12/28 01:43:00;;;;;;;3.83;1.33;;;;;;;3.68;nan;93210.63;4988906;28;20696;-95
2020/12/28 01:45:26;;;;;;;1.85;1.30;;;;;;;3.58;nan;93201.31;4989086;28;20270;-94
2020/12/28 01:47:54;;;;;;;2.50;2.00;;;;;;;3.68;nan;93217.56;4989058;28;20655;-95
2020/12/28 01:50:21;;;;;;;2.10;1.33;;;;;;;3.44;nan;93182.00;4987965;28;20231;-94
2020/12/28 01:52:49;;;;;;;1.58;1.42;;;;;;;3.67;nan;93206.44;4989459;28;20291;-93
2020/12/28 01:55:18;;;;;;;3.72;1.85;;;;;;;3.66;nan;93204.84;4989863;28;20251;-94
2020/12/28 01:57:45;;;;;;;2.63;1.58;;;;;;;3.59;nan;93182.41;4982292;28;20637;-93
2020/12/28 02:00:12;;;;;;;1.83;1.42;;;;;;;3.27;nan;93135.63;4989273;28;20229;-95
2020/12/28 02:02:39;;;;;;;2.70;2.28;;;;;;;3.56;nan;93180.91;4992028;28;20708;-95
2020/12/28 02:05:06;;;;;;;5.90;1.77;;;;;;;3.20;nan;93124.28;4988784;28;20225;-94
2020/12/28 02:07:39;;;;;;;2.85;1.70;;;;;;;3.42;nan;93168.47;4988686;28;20203;-93
2020/12/28 02:10:08;;;;;;;1.67;1.42;;;;;;;3.47;nan;93175.78;4989821;28;20261;-92
2020/12/28 02:12:38;;;;;;;2.92;2.00;;;;;;;3.53;nan;93176.03;4992598;28;20222;-93
2020/12/28 02:15:07;;;;;;;3.20;2.13;;;;;;;3.48;nan;93165.38;4987902;28;20244;-93
2020/12/28 02:17:34;;;;;;;4.57;1.83;;;;;;;3.50;nan;93186.59;4988517;28;20561;-93
2020/12/28 02:20:01;;;;;;;2.92;1.55;;;;;;;3.51;nan;93185.63;4987712;28;20320;-94
2020/12/28 02:22:29;;;;;;;2.83;1.70;;;;;;;3.29;nan;93142.25;4992775;28;20217;-94
2020/12/28 02:24:57;;;;;;;1.98;1.60;;;;;;;3.50;nan;93178.88;4991604;28;20291;-93
2020/12/28 02:27:24;;;;;;;3.08;2.33;;;;;;;3.51;nan;93170.22;4987480;28;20244;-94
2020/12/28 02:29:51;;;;;;;2.95;2.15;;;;;;;3.36;nan;93142.50;4988484;28;20280;-94
2020/12/28 02:32:18;;;;;;;2.35;1.33;;;;;;;3.33;nan;93135.06;4990767;28;20211;-94
2020/12/28 02:34:45;;;;;;;2.78;1.90;;;;;;;3.37;nan;93162.94;4987612;28;20301;-92
2020/12/28 02:37:12;;;;;;;5.20;2.28;;;;;;;3.16;nan;93123.72;4987340;28;20274;-95
2020/12/28 02:39:40;;;;;;;2.78;2.10;;;;;;;3.32;nan;93136.03;4986589;28;20686;-94
2020/12/28 02:42:07;;;;;;;2.70;1.92;;;;;;;3.19;nan;93118.34;4989266;28;20198;-94
2020/12/28 02:44:34;;;;;;;3.08;1.83;;;;;;;3.13;nan;93111.19;4989130;28;20742;-94
2020/12/28 02:47:01;;;;;;;2.17;1.70;;;;;;;3.29;nan;93133.72;4988903;28;20586;-94
2020/12/28 02:49:29;;;;;;;3.95;2.40;;;;;;;3.38;nan;93164.53;4989215;28;20588;-93
2020/12/28 02:51:57;;;;;;;2.30;2.10;;;;;;;3.32;nan;93144.53;4989470;28;20298;-94
2020/12/28 02:54:24;;;;;;;3.58;2.40;;;;;;;3.29;nan;93137.09;4991881;28;20280;-94
2020/12/28 02:56:52;;;;;;;3.58;2.25;;;;;;;3.26;nan;93137.41;4992319;28;20311;-94
2020/12/28 02:59:24;;;;;;;3.70;2.40;;;;;;;3.29;nan;93139.69;4990366;28;20273;-94
2020/12/28 03:01:51;;;;;;;2.60;2.17;;;;;;;3.19;nan;93120.91;4989852;28;20198;-94
2020/12/28 03:04:18;;;;;;;3.38;2.60;;;;;;;3.30;nan;93140.50;4990172;28;20357;-94
2020/12/28 03:06:45;;;;;;;2.90;2.22;;;;;;;3.17;nan;93089.38;4991890;28;20519;-94
2020/12/28 03:09:12;;;;;;;2.72;1.95;;;;;;;3.24;nan;93090.47;4991546;28;20255;-94
2020/12/28 03:11:40;;;;;;;3.80;2.70;;;;;;;3.40;nan;93124.13;4996632;28;20710;-93
2020/12/28 03:14:11;;;;;;;3.40;2.72;;;;;;;3.33;nan;93120.50;4991395;28;20229;-93
2020/12/28 03:16:38;;;;;;;2.10;1.92;;;;;;;3.02;nan;93085.63;4989454;28;20640;-94
2020/12/28 03:19:05;;;;;;;3.03;2.70;;;;;;;3.11;nan;93095.09;4991036;28;20499;-94
2020/12/28 03:24:56;;;;;;;2.60;2.40;;;;;;;2.98;nan;93086.03;4993433;28;20762;-95
2020/12/28 03:27:23;;;;;;;3.65;2.55;;;;;;;3.13;nan;93103.47;4992140;28;20710;-94
2020/12/28 03:29:51;;;;;;;2.72;2.42;;;;;;;3.30;nan;93136.16;4993245;28;20600;-96
2020/12/28 03:32:18;;;;;;;3.40;2.60;;;;;;;3.34;nan;93132.38;4992904;28;20305;-95
2020/12/28 03:34:45;;;;;;;4.63;2.45;;;;;;;3.37;nan;93154.44;4994585;28;20272;-94
2020/12/28 03:37:12;;;;;;;3.63;2.55;;;;;;;3.19;nan;93110.63;4999217;28;20203;-94
2020/12/28 03:39:39;;;;;;;2.60;2.13;;;;;;;3.14;nan;93110.22;4990682;28;20619;-94
2020/12/28 03:42:09;;;;;;;2.65;2.45;;;;;;;3.32;nan;93129.13;4993221;28;20338;-95
2020/12/28 03:44:37;;;;;;;3.10;1.85;;;;;;;2.93;nan;93071.03;4991038;28;20218;-96
2020/12/28 03:47:05;;;;;;;2.58;2.10;;;;;;;2.94;nan;93067.53;4992838;28;20190;-96
2020/12/28 03:53:28;;;;;;;2.55;1.83;;;;;;;3.19;nan;93090.06;4974612;28;20166;-93
2020/12/28 03:55:55;;;;;;;1.80;1.40;;;;;;;3.13;nan;93082.09;4998558;28;20244;-94
2020/12/28 03:58:22;;;;;;;2.70;1.92;;;;;;;3.29;nan;93101.13;4996818;28;20324;-94
2020/12/28 04:00:50;;;;;;;2.88;1.63;;;;;;;3.01;nan;93062.66;4994129;28;20218;-95
2020/12/28 04:03:17;;;;;;;1.38;1.20;;;;;;;2.90;nan;93048.22;4993669;28;20597;-95
2020/12/28 04:05:45;;;;;;;2.47;1.40;;;;;;;2.72;nan;93037.00;4990297;28;20707;-95
2020/12/28 04:08:11;;;;;;;1.92;1.10;;;;;;;2.58;nan;93003.25;4991599;28;20519;-94
2020/12/28 04:10:38;;;;;;;1.10;1.00;;;;;;;2.88;nan;93021.84;4989425;28;20309;-94
2020/12/28 04:13:06;;;;;;;1.88;1.30;;;;;;;3.19;nan;93100.34;4992201;28;20220;-94
2020/12/28 04:15:33;;;;;;;1.20;1.10;;;;;;;2.92;nan;93059.16;4990351;28;20222;-94
2020/12/28 04:18:00;;;;;;;1.30;0.93;;;;;;;2.74;nan;93042.00;4992005;28;20541;-95
2020/12/28 04:20:28;;;;;;;1.40;1.10;;;;;;;2.96;nan;93081.06;4990884;28;20242;-94
2020/12/28 04:22:56;;;;;;;1.55;0.90;;;;;;;2.88;nan;93065.50;4990679;28;20206;-93
2020/12/28 04:25:22;;;;;;;1.38;1.02;;;;;;;3.10;nan;93098.59;4980925;28;20618;-93
2020/12/28 04:27:49;;;;;;;1.10;1.00;;;;;;;3.12;nan;93083.88;4990041;28;20702;-94
2020/12/28 04:30:16;;;;;;;1.50;1.20;;;;;;;3.10;nan;93075.47;4990925;28;20668;-93
2020/12/28 04:32:43;;;;;;;1.15;0.90;;;;;;;2.70;nan;93000.41;4991377;28;20238;-93
2020/12/28 04:35:10;;;;;;;1.27;0.95;;;;;;;2.99;nan;93064.53;4989863;28;20619;-92
2020/12/28 04:37:39;;;;;;;1.52;0.80;;;;;;;3.13;nan;93082.91;4991890;28;20592;-93
2020/12/28 04:40:06;;;;;;;1.02;0.80;;;;;;;3.06;nan;93074.13;4989119;28;20621;-93
2020/12/28 04:42:33;;;;;;;1.10;0.95;;;;;;;3.11;nan;93079.69;4989799;28;20294;-93
2020/12/28 04:45:00;;;;;;;1.88;1.00;;;;;;;3.04;nan;93052.94;4989085;28;20226;-91
2020/12/28 04:47:27;;;;;;;1.25;0.90;;;;;;;3.21;nan;93077.91;4990571;28;20198;-93
2020/12/28 04:49:54;;;;;;;1.30;0.80;;;;;;;3.15;nan;93081.00;4989107;28;20292;-93
2020/12/28 04:52:22;;;;;;;1.75;1.00;;;;;;;3.12;nan;93057.34;4991945;28;20713;-92
2020/12/28 04:54:49;;;;;;;0.80;0.70;;;;;;;2.85;nan;93022.13;4990951;28;20269;-92
2020/12/28 04:57:16;;;;;;;0.90;0.70;;;;;;;3.15;nan;93075.88;4997349;28;20585;-93
2020/12/28 04:59:43;;;;;;;0.98;0.70;;;;;;;3.05;nan;93069.13;4990478;28;20257;-93
2020/12/28 05:02:11;;;;;;;0.93;0.90;;;;;;;3.04;nan;93068.34;4991435;28;20660;-95
2020/12/28 05:04:38;;;;;;;1.73;0.95;;;;;;;3.00;nan;93066.97;4990277;28;20226;-94
2020/12/28 05:07:06;;;;;;;1.45;1.10;;;;;;;3.22;nan;93071.81;4990144;28;20458;-95
2020/12/28 05:09:34;;;;;;;0.95;0.70;;;;;;;2.82;nan;93014.72;4991597;28;20751;-95
2020/12/28 05:12:03;;;;;;;0.90;0.70;;;;;;;3.06;nan;93045.88;4991351;28;20233;-95
2020/12/28 05:14:31;;;;;;;1.00;0.65;;;;;;;3.16;nan;93054.38;4989450;28;20217;-92
2020/12/28 05:16:58;;;;;;;0.80;0.70;;;;;;;3.19;nan;93056.69;4990724;28;20235;-94
2020/12/28 05:19:26;;;;;;;0.98;0.80;;;;;;;3.19;nan;93054.13;4989030;28;20329;-92
2020/12/28 05:21:54;;;;;;;1.20;0.85;;;;;;;3.20;nan;93053.16;4992116;28;20617;-92
2020/12/28 05:24:23;;;;;;;1.00;0.60;;;;;;;3.07;nan;93032.09;4991675;28;20233;-93
2020/12/28 05:26:55;;;;;;;1.40;0.70;;;;;;;3.27;nan;93059.38;4993500;28;20293;-96
2020/12/28 05:29:26;;;;;;;0.82;0.68;;;;;;;3.32;nan;93072.59;4989521;28;20668;-95
2020/12/28 05:31:55;;;;;;;0.80;0.63;;;;;;;3.25;nan;93058.69;4990246;28;20201;-95
2020/12/28 05:34:24;;;;;;;1.20;0.68;;;;;;;3.25;nan;93063.84;4972420;28;20223;-95
2020/12/28 05:36:54;;;;;;;1.65;0.85;;;;;;;3.25;nan;93056.13;4993847;28;20256;-95
2020/12/28 05:39:22;;;;;;;1.35;0.90;;;;;;;3.34;nan;93077.59;4990804;28;20316;-95
2020/12/28 05:41:53;;;;;;;0.80;0.63;;;;;;;2.93;nan;93004.28;4990567;28;20648;-94
2020/12/28 05:44:24;;;;;;;1.40;0.57;;;;;;;3.03;nan;93025.59;4989315;28;20229;-95
2020/12/28 05:47:01;;;;;;;0.70;0.60;;;;;;;3.09;nan;93045.59;4989637;28;20200;-95
2020/12/28 05:49:33;;;;;;;1.13;0.60;;;;;;;3.29;nan;93072.06;4990534;28;20287;-96
2020/12/28 05:52:01;;;;;;;0.80;0.60;;;;;;;3.36;nan;93063.66;4990717;28;20541;-96
2020/12/28 05:54:30;;;;;;;0.70;0.50;;;;;;;3.40;nan;93069.34;4990419;28;20223;-95
2020/12/28 05:56:57;;;;;;;1.00;0.70;;;;;;;3.00;nan;93020.75;4992021;28;20234;-94
2020/12/28 05:59:26;;;;;;;0.70;0.60;;;;;;;3.23;nan;93057.22;4989389;28;20740;-95
2020/12/28 06:01:53;;;;;;;0.95;0.68;;;;;;;3.21;nan;93047.06;4968944;28;20253;-95
2020/12/28 06:04:20;;;;;;;0.80;0.60;;;;;;;3.39;nan;93067.72;4968985;28;20606;-95
2020/12/28 06:06:48;;;;;;;0.93;0.68;;;;;;;3.27;nan;93043.94;4971646;28;20200;-95
2020/12/28 06:09:16;;;;;;;1.10;0.80;;;;;;;3.46;nan;93072.16;4985056;28;20218;-96
2020/12/28 06:11:43;;;;;;;1.38;0.70;;;;;;;3.24;nan;93031.38;4993943;28;20629;-95
2020/12/28 06:14:18;;;;;;;1.38;1.00;;;;;;;3.30;nan;93032.59;4989614;28;20241;-96
2020/12/28 06:17:03;;;;;;;1.15;0.60;;;;;;;3.50;nan;93072.69;4987777;28;20637;-94
2020/12/28 06:19:30;;;;;;;0.90;0.70;;;;;;;3.24;nan;93035.72;4989574;28;20261;-93
2020/12/28 06:21:58;;;;;;;0.70;0.60;;;;;;;3.29;nan;93056.63;4989264;28;20190;-93
2020/12/28 06:24:26;;;;;;;0.70;0.60;;;;;;;3.39;nan;93086.50;4989010;28;20288;-93
2020/12/28 06:27:07;;;;;;;1.23;0.63;;;;;;;3.33;nan;93078.53;4990811;28;20691;-93
2020/12/28 06:29:36;;;;;;;1.40;0.85;;;;;;;3.13;nan;93057.22;4991643;28;20249;-94
2020/12/28 06:32:14;;;;;;;2.42;1.23;;;;;;;3.28;nan;93075.56;4993406;28;20537;-93
2020/12/28 06:34:44;;;;;;;1.13;0.93;;;;;;;3.05;nan;93039.13;4974686;28;20249;-93
2020/12/28 06:37:13;;;;;;;0.80;0.50;;;;;;;3.31;nan;93091.53;4993181;28;20587;-95
2020/12/28 06:39:40;;;;;;;1.40;0.70;;;;;;;3.10;nan;93057.50;4992481;28;20717;-92
2020/12/28 06:42:12;;;;;;;1.23;0.60;;;;;;;2.96;nan;93028.88;4992878;28;20324;-94
2020/12/28 06:44:40;;;;;;;0.70;0.60;;;;;;;3.21;nan;93070.19;4992697;28;20687;-93
2020/12/28 06:47:19;;;;;;;1.08;0.70;;;;;;;3.21;nan;93075.34;4995279;28;20621;-93
2020/12/28 06:49:47;;;;;;;0.98;0.60;;;;;;;2.96;nan;93050.25;4994131;28;20723;-94
2020/12/28 06:52:14;;;;;;;1.10;0.80;;;;;;;2.85;nan;93052.94;4994330;28;20817;-94
2020/12/28 06:54:41;;;;;;;1.05;0.70;;;;;;;3.05;nan;93090.50;4992835;28;20308;-96
2020/12/28 06:57:09;;;;;;;4.50;0.70;;;;;;;2.77;nan;93044.28;5002853;28;20546;-95
2020/12/28 06:59:39;;;;;;;0.70;0.60;;;;;;;2.72;nan;93042.13;5008364;28;20731;-94
2020/12/28 07:02:07;;;;;;;1.10;0.60;;;;;;;2.64;nan;93024.03;5016076;28;20656;-95
2020/12/28 07:04:37;;;;;;;0.80;0.60;;;;;;;2.89;nan;93084.28;5001108;28;20341;-93
2020/12/28 07:07:06;;;;;;;0.70;0.55;;;;;;;2.86;nan;93084.56;4994416;28;20691;-94
2020/12/28 07:09:33;;;;;;;3.75;1.98;;;;;;;2.84;nan;93081.31;4992179;28;20241;-94
2020/12/28 07:12:08;;;;;;;2.28;1.27;;;;;;;2.77;nan;93078.50;4991870;28;20631;-93
2020/12/28 07:14:36;;;;;;;0.70;0.70;;;;;;;2.33;nan;93012.31;4992168;28;20275;-93
2020/12/28 07:17:04;;;;;;;0.88;0.70;;;;;;;2.70;nan;93058.63;4991051;28;20261;-92
2020/12/28 07:19:34;;;;;;;0.70;0.55;;;;;;;2.78;nan;93074.97;4992157;28;20750;-93
2020/12/28 07:22:02;;;;;;;0.95;0.60;;;;;;;2.58;nan;93041.75;4991096;28;20971;-93
2020/12/28 07:24:30;;;;;;;0.95;0.52;;;;;;;2.52;nan;93037.97;4993861;28;20222;-92
2020/12/28 07:27:07;;;;;;;2.65;0.60;;;;;;;2.63;nan;93042.97;4997899;28;20225;-93
2020/12/28 07:29:35;;;;;;;0.80;0.70;;;;;;;2.63;nan;93066.06;4990757;28;20218;-93
2020/12/28 07:32:04;;;;;;;0.80;0.60;;;;;;;2.34;nan;93021.63;4995339;28;20295;-93
2020/12/28 07:34:31;;;;;;;1.55;0.80;;;;;;;2.57;nan;93060.66;4991238;28;20676;-92
2020/12/28 07:37:01;;;;;;;1.95;0.50;;;;;;;2.63;nan;93073.75;4989292;28;20234;-93
2020/12/28 07:39:31;;;;;;;0.80;0.50;;;;;;;2.54;nan;93040.38;4988278;28;20591;-94
2020/12/28 07:41:59;;;;;;;0.60;0.50;;;;;;;2.59;nan;93062.13;4990343;28;20206;-95
2020/12/28 07:44:26;;;;;;;0.70;0.68;;;;;;;2.11;nan;92986.94;4990555;28;20222;-94
2020/12/28 07:46:59;;;;;;;1.15;0.60;;;;;;;2.04;nan;92983.28;4994106;28;20213;-94
2020/12/28 07:49:29;;;;;;;1.98;0.95;;;;;;;2.11;nan;92988.66;4993519;28;20242;-96
2020/12/28 07:52:05;;;;;;;1.00;0.77;;;;;;;2.30;nan;93025.41;4995031;28;20210;-92
2020/12/28 07:54:41;;;;;;;0.90;0.70;;;;;;;2.10;nan;92993.00;4991910;28;20316;-94
2020/12/28 07:57:18;;;;;;;1.35;0.60;;;;;;;2.36;nan;93053.06;4996634;28;20201;-92
2020/12/28 08:00:05;;;;;;;0.85;0.60;;;;;;;2.13;nan;92984.25;4980594;28;20230;-95
2020/12/28 08:02:44;;;;;;;1.65;0.90;;;;;;;2.27;nan;93020.53;4981415;28;20316;-95
2020/12/28 08:05:13;;;;;;;0.80;0.70;;;;;;;2.22;nan;93003.94;4987992;28;20245;-94
2020/12/28 08:07:40;;;;;;;3.55;0.80;;;;;;;2.23;nan;93011.50;4991827;28;20209;-92
2020/12/28 08:10:09;;;;;;;1.30;0.90;;;;;;;2.51;nan;93058.63;4990880;28;20692;-92
2020/12/28 08:12:41;;;;;;;1.73;0.80;;;;;;;2.45;nan;93047.16;4991345;28;20261;-92
2020/12/28 08:15:09;;;;;;;1.10;0.77;;;;;;;2.23;nan;93008.94;4990273;28;20219;-93
2020/12/28 08:17:37;;;;;;;0.90;0.73;;;;;;;2.39;nan;93029.72;4975324;28;20621;-93
2020/12/28 08:23:31;;;;;;;1.15;0.80;;;;;;;2.26;nan;93012.97;4992947;28;20284;-94
2020/12/28 08:26:02;;;;;;;1.35;0.85;;;;;;;2.19;nan;92996.50;4996346;28;20214;-95
2020/12/28 08:28:29;;;;;;;1.10;0.70;;;;;;;2.07;nan;92977.88;4994159;28;20201;-95
2020/12/28 08:30:57;;;;;;;1.40;0.90;;;;;;;2.49;nan;93045.94;4993237;28;20551;-92
2020/12/28 08:33:24;;;;;;;1.00;0.80;;;;;;;2.49;nan;93038.22;4992308;28;20598;-94
2020/12/28 08:35:52;;;;;;;0.80;0.75;;;;;;;2.52;nan;93044.84;4990403;28;20770;-92
2020/12/28 08:38:30;;;;;;;2.40;0.80;;;;;;;2.37;nan;93016.22;4992223;28;20212;-94
2020/12/28 08:40:57;;;;;;;3.85;1.52;;;;;;;2.46;nan;93025.69;4994432;28;20221;-92
2020/12/28 08:46:28;;;;;;;1.33;0.88;;;;;;;2.62;nan;93045.66;4993888;28;20221;-93
2020/12/28 08:48:56;;;;;;;5.65;0.75;;;;;;;2.50;nan;93026.22;4992094;28;20273;-94
2020/12/28 08:51:23;;;;;;;0.93;0.70;;;;;;;2.51;nan;93022.72;4992164;28;20194;-94
2020/12/28 08:53:51;;;;;;;1.40;0.80;;;;;;;2.24;nan;92984.09;4993525;28;20194;-94
2020/12/28 08:56:19;;;;;;;3.90;0.75;;;;;;;2.72;nan;93054.19;5009780;28;20292;-93
2020/12/28 08:58:49;;;;;;;0.90;0.70;;;;;;;2.20;nan;92977.63;5010320;28;20208;-95
2020/12/28 09:01:16;;;;;;;0.80;0.63;;;;;;;2.39;nan;93000.69;5011368;28;20577;-94
2020/12/28 09:03:44;;;;;;;0.70;0.50;;;;;;;2.60;nan;93030.41;5010937;28;20224;-93
2020/12/28 09:06:20;;;;;;;1.17;0.75;;;;;;;2.79;nan;93048.34;5011107;28;20670;-92
2020/12/28 09:08:47;;;;;;;1.23;0.60;;;;;;;2.77;nan;93050.25;4998990;28;20700;-95
2020/12/28 09:11:15;;;;;;;0.93;0.60;;;;;;;2.87;nan;93048.47;4991575;28;20646;-94
2020/12/28 09:13:41;;;;;;;0.80;0.70;;;;;;;2.77;nan;93034.03;4992122;28;20293;-94
2020/12/28 09:16:09;;;;;;;0.93;0.70;;;;;;;2.97;nan;93056.16;4991927;28;20657;-92
2020/12/28 09:29:51;;;;;;;1.80;0.60;;;;;;;3.24;nan;93033.94;4951095;28;20664;-95
2020/12/28 09:32:18;;;;;;;0.90;0.57;;;;;;;3.07;nan;92995.31;4973955;28;20191;-93
2020/12/28 09:34:47;;;;;;;0.70;0.60;;;;;;;2.66;nan;92919.47;4981891;28;20261;-96
2020/12/28 09:37:14;;;;;;;0.65;0.50;;;;;;;3.13;nan;93000.72;4985289;28;20671;-96
2020/12/28 09:39:41;;;;;;;0.70;0.60;;;;;;;2.90;nan;92950.66;4983214;28;20235;-94
2020/12/28 09:42:08;;;;;;;0.80;0.60;;;;;;;3.49;nan;93028.19;4987240;28;20187;-94
2020/12/28 09:44:36;;;;;;;0.82;0.60;;;;;;;3.37;nan;92980.47;4986093;28;20284;-94
2020/12/28 09:47:04;;;;;;;1.45;0.68;;;;;;;3.76;nan;93029.97;4983561;28;20581;-95
2020/12/28 09:49:31;;;;;;;0.75;0.73;;;;;;;3.45;nan;92967.72;4986511;28;20236;-95
2020/12/28 09:51:59;;;;;;;0.88;0.60;;;;;;;3.69;nan;93014.31;4983839;28;20211;-95
2020/12/28 09:54:26;;;;;;;1.17;0.70;;;;;;;3.39;nan;92978.56;4983781;28;20282;-95
2020/12/28 09:57:05;;;;;;;6.72;0.90;;;;;;;3.42;nan;92969.78;4999034;28;20657;-96
2020/12/28 09:59:35;;;;;;;1.80;0.80;;;;;;;3.93;nan;93035.94;5024551;28;20240;-96
2020/12/28 10:02:03;;;;;;;1.10;0.90;;;;;;;3.62;nan;92986.72;5024253;28;20197;-95
2020/12/28 10:04:31;;;;;;;1.42;0.80;;;;;;;3.81;nan;93038.06;5021910;28;20280;-95
2020/12/28 10:06:58;;;;;;;1.10;0.80;;;;;;;3.49;nan;92976.78;5004723;28;20533;-95
2020/12/28 10:09:26;;;;;;;3.45;0.88;;;;;;;3.60;nan;93006.63;4997770;28;20731;-96
2020/12/28 10:12:13;;;;;;;1.77;1.20;;;;;;;3.63;nan;93014.88;4997583;28;20280;-96
2020/12/28 10:14:40;;;;;;;1.85;0.93;;;;;;;3.72;nan;93050.00;4999443;28;20219;-96
2020/12/28 10:17:07;;;;;;;3.80;1.00;;;;;;;3.72;nan;93034.59;4999497;28;20200;-96
2020/12/28 10:19:35;;;;;;;1.55;0.90;;;;;;;3.72;nan;93013.19;4999736;28;20230;-96
2020/12/28 10:22:03;;;;;;;1.52;0.80;;;;;;;3.75;nan;93013.72;5004219;28;20572;-96
2020/12/28 10:24:30;;;;;;;2.00;1.10;;;;;;;3.73;nan;92995.06;4996526;28;20236;-96
2020/12/28 10:26:57;;;;;;;0.90;0.70;;;;;;;3.89;nan;93028.66;4996784;28;20555;-95
2020/12/28 10:29:24;;;;;;;1.10;0.80;;;;;;;3.52;nan;92966.22;4996672;28;20226;-95
2020/12/28 10:31:56;;;;;;;1.20;0.85;;;;;;;3.60;nan;92974.00;4998136;28;20206;-96
2020/12/28 10:34:23;;;;;;;1.50;0.80;;;;;;;4.01;nan;93024.97;4999241;28;20221;-96
2020/12/28 10:36:52;;;;;;;1.00;0.70;;;;;;;3.74;nan;92954.75;4998369;28;20179;-96
2020/12/28 10:39:20;;;;;;;1.00;0.80;;;;;;;3.66;nan;92929.75;4997535;28;20695;-96
2020/12/28 10:41:47;;;;;;;1.17;0.73;;;;;;;3.86;nan;92989.56;4999709;28;20265;-96
2020/12/28 10:44:14;;;;;;;1.77;0.70;;;;;;;3.93;nan;92961.38;4997423;28;20208;-96
2020/12/28 10:46:42;;;;;;;2.00;0.82;;;;;;;4.21;nan;93016.19;4999914;28;20593;-96
2020/12/28 10:49:09;;;;;;;1.98;0.95;;;;;;;3.70;nan;92931.09;4997182;28;20595;-96
2020/12/28 10:51:36;;;;;;;1.40;1.00;;;;;;;3.99;nan;92981.38;4999028;28;20279;-94
2020/12/28 10:54:04;;;;;;;1.00;0.73;;;;;;;4.25;nan;93002.88;4997023;28;20583;-96
2020/12/28 10:56:31;;;;;;;1.35;1.05;;;;;;;4.03;nan;92965.66;4997598;28;20557;-95
2020/12/28 10:58:59;;;;;;;1.95;0.90;;;;;;;4.09;nan;92973.59;4996538;28;20244;-95
2020/12/28 11:01:27;;;;;;;1.23;1.00;;;;;;;3.93;nan;92942.56;4999292;28;20564;-96
2020/12/28 11:03:56;;;;;;;1.13;0.80;;;;;;;4.32;nan;92995.38;4999155;28;20201;-95
2020/12/28 11:06:23;;;;;;;0.95;0.80;;;;;;;3.99;nan;92934.28;5001296;28;20579;-94
2020/12/28 11:08:51;;;;;;;1.35;0.73;;;;;;;3.98;nan;92928.31;5018615;28;20194;-95
2020/12/28 11:11:21;;;;;;;1.75;1.00;;;;;;;3.79;nan;92906.25;5006017;28;20216;-95
2020/12/28 11:13:51;;;;;;;1.60;0.93;;;;;;;4.06;nan;92940.44;5005693;28;20186;-94
2020/12/28 11:16:26;;;;;;;1.45;0.90;;;;;;;3.73;nan;92883.69;5010949;28;20232;-95
2020/12/28 11:18:54;;;;;;;1.60;1.13;;;;;;;4.28;nan;92963.97;5008092;28;20210;-95
2020/12/28 11:21:21;;;;;;;2.40;1.00;;;;;;;4.25;nan;92961.69;4998154;28;20718;-96
2020/12/28 11:24:01;;;;;;;1.52;0.90;;;;;;;3.68;nan;92868.69;4995931;28;20630;-95
2020/12/28 11:26:32;;;;;;;1.10;0.82;;;;;;;4.04;nan;92934.63;4996820;28;20215;-96
2020/12/28 11:29:01;;;;;;;1.20;0.80;;;;;;;4.04;nan;92909.72;4997784;28;20616;-96
2020/12/28 11:31:28;;;;;;;4.75;1.17;;;;;;;4.08;nan;92917.94;4997474;28;20212;-95
2020/12/28 11:33:55;;;;;;;0.80;0.73;;;;;;;4.09;nan;92928.09;4998347;28;20521;-96
2020/12/28 11:36:23;;;;;;;1.88;0.88;;;;;;;3.62;nan;92863.34;4997557;28;20204;-95
2020/12/28 11:38:50;;;;;;;1.13;0.85;;;;;;;4.28;nan;92956.25;4998711;28;20510;-96
2020/12/28 11:41:18;;;;;;;1.08;0.70;;;;;;;4.07;nan;92914.56;4998066;28;20583;-96
2020/12/28 11:43:46;;;;;;;2.40;1.00;;;;;;;3.96;nan;92880.53;5000238;28;20242;-95
2020/12/28 11:46:14;;;;;;;1.23;0.70;;;;;;;4.20;nan;92929.63;5001022;28;20348;-96
2020/12/28 11:48:41;;;;;;;1.85;0.80;;;;;;;4.00;nan;92905.03;5000487;28;20208;-96
2020/12/28 11:51:10;;;;;;;3.45;0.90;;;;;;;4.41;nan;92972.13;5002320;28;20253;-96
2020/12/28 11:53:37;;;;;;;1.05;0.60;;;;;;;4.24;nan;92926.63;5000272;28;20213;-96
2020/12/28 11:56:05;;;;;;;2.38;0.85;;;;;;;4.26;nan;92921.31;4995352;28;20225;-95
2020/12/28 11:58:35;;;;;;;1.27;1.17;;;;;;;4.51;nan;92951.47;4996158;28;20213;-96
2020/12/28 12:01:04;;;;;;;1.20;0.80;;;;;;;4.32;nan;92923.31;4996182;28;20265;-96
2020/12/28 12:03:32;;;;;;;1.30;0.80;;;;;;;4.45;nan;92946.91;4997478;28;20263;-96
2020/12/28 12:06:00;;;;;;;0.80;0.70;;;;;;;4.51;nan;92951.47;4995870;28;20790;-96
2020/12/28 12:08:28;;;;;;;1.25;0.77;;;;;;;4.47;nan;92943.22;4996876;28;20722;-96
2020/12/28 12:10:58;;;;;;;1.40;0.85;;;;;;;4.38;nan;92920.13;5000063;28;20679;-96
2020/12/28 12:13:26;;;;;;;1.45;0.80;;;;;;;4.54;nan;92951.16;5006025;28;20579;-95
2020/12/28 12:15:53;;;;;;;1.27;0.90;;;;;;;4.48;nan;92931.16;4998703;28;20225;-96
2020/12/28 12:18:23;;;;;;;3.78;1.00;;;;;;;4.33;nan;92914.63;4997149;28;20220;-95
2020/12/28 12:20:51;;;;;;;2.08;1.20;;;;;;;4.37;nan;92934.75;4995749;28;20579;-94
2020/12/28 12:23:18;;;;;;;1.90;1.13;;;;;;;3.97;nan;92894.22;4993472;28;20198;-94
2020/12/28 12:25:45;;;;;;;2.22;0.95;;;;;;;4.23;nan;92952.50;4992021;28;20213;-96
2020/12/28 12:28:12;;;;;;;1.25;1.10;;;;;;;3.68;nan;92866.13;4993378;28;20231;-93
2020/12/28 12:30:39;;;;;;;1.55;1.10;;;;;;;3.93;nan;92948.50;4992525;28;20293;-95
2020/12/28 12:33:06;;;;;;;4.53;1.50;;;;;;;3.92;nan;92940.97;4991871;28;20178;-96